createdAt,value
2018-09-29T00:00:56.838Z,9.70
2018-09-29T00:03:27.171Z,9.40
2018-09-29T00:05:57.862Z,7.73
2018-09-29T00:08:28.196Z,7.73
2018-09-29T00:10:58.441Z,6.33
2018-09-29T00:13:28.697Z,7.23
2018-09-29T00:15:59.059Z,6.77
2018-09-29T00:18:29.583Z,6.80
2018-09-29T00:20:59.907Z,5.57
2018-09-29T00:23:30.199Z,5.87
2018-09-29T00:26:00.467Z,5.20
2018-09-29T00:28:30.712Z,5.80
2018-09-29T00:31:01.104Z,6.27
2018-09-29T00:33:31.351Z,4.83
2018-09-29T00:36:01.598Z,5.03
2018-09-29T00:38:31.889Z,4.90
2018-09-29T00:41:02.149Z,5.60
2018-09-29T00:43:32.929Z,4.33
2018-09-29T00:46:03.756Z,5.27
2018-09-29T00:48:34.208Z,3.93
2018-09-29T00:51:04.930Z,4.07
2018-09-29T00:53:35.351Z,4.30
2018-09-29T00:56:05.595Z,4.63
2018-09-29T00:58:35.840Z,4.43
2018-09-29T01:01:06.640Z,4.97
2018-09-29T01:03:36.902Z,4.57
2018-09-29T01:06:07.187Z,4.17
2018-09-29T01:08:37.663Z,4.10
2018-09-29T01:11:07.977Z,4.07
2018-09-29T01:13:38.245Z,4.77
2018-09-29T01:16:08.671Z,4.70
2018-09-29T01:18:38.941Z,6.30
2018-09-29T01:21:10.823Z,6.67
2018-09-29T01:23:41.073Z,7.90
2018-09-29T01:26:11.424Z,6.57
2018-09-29T01:28:41.771Z,7.87
2018-09-29T01:31:12.046Z,8.37
2018-09-29T01:33:42.288Z,8.77
2018-09-29T01:36:12.796Z,4.90
2018-09-29T01:38:43.049Z,6.50
2018-09-29T01:41:13.297Z,6.27
2018-09-29T01:43:43.628Z,8.80
2018-09-29T01:46:13.872Z,7.03
2018-09-29T01:48:44.121Z,8.43
2018-09-29T01:51:14.511Z,7.40
2018-09-29T01:53:44.756Z,8.13
2018-09-29T01:56:15.076Z,7.20
2018-09-29T01:58:45.355Z,7.17
2018-09-29T02:01:15.806Z,6.43
2018-09-29T02:03:46.151Z,5.83
2018-09-29T02:06:16.404Z,6.93
2018-09-29T02:08:46.673Z,7.23
2018-09-29T02:11:16.969Z,6.43
2018-09-29T02:13:47.227Z,5.27
2018-09-29T02:16:17.509Z,4.87
2018-09-29T02:18:47.810Z,5.53
2018-09-29T02:21:18.082Z,5.60
2018-09-29T02:23:48.436Z,5.00
2018-09-29T02:26:19.272Z,4.83
2018-09-29T02:28:49.600Z,5.97
2018-09-29T02:31:20.029Z,5.13
2018-09-29T02:33:50.305Z,4.83
2018-09-29T02:36:20.595Z,4.50
2018-09-29T02:38:50.842Z,5.00
2018-09-29T02:41:21.075Z,5.30
2018-09-29T02:43:51.424Z,5.07
2018-09-29T02:46:21.677Z,5.50
2018-09-29T02:48:51.929Z,5.33
2018-09-29T02:51:24.960Z,5.03
2018-09-29T02:53:55.229Z,4.70
2018-09-29T02:56:25.519Z,4.60
2018-09-29T02:58:55.759Z,4.50
2018-09-29T03:01:26.073Z,5.23
2018-09-29T03:03:56.462Z,5.47
2018-09-29T03:06:26.944Z,5.80
2018-09-29T03:08:57.209Z,5.13
2018-09-29T03:11:27.481Z,5.20
2018-09-29T03:13:57.743Z,5.10
2018-09-29T03:16:27.981Z,5.47
2018-09-29T03:46:19.931Z,7.62
2018-09-29T03:48:53.035Z,8.33
2018-09-29T03:51:23.288Z,7.67
2018-09-29T03:53:53.647Z,7.57
2018-09-29T03:56:24.008Z,7.13
2018-09-29T03:58:55.102Z,8.87
2018-09-29T04:01:25.736Z,12.07
2018-09-29T04:03:55.992Z,17.43
2018-09-29T04:06:26.284Z,54.93
2018-09-29T04:08:56.556Z,56.07
2018-09-29T04:11:26.833Z,67.27
2018-09-29T04:13:57.218Z,43.67
2018-09-29T04:16:27.697Z,27.87
2018-09-29T04:18:57.958Z,59.33
2018-09-29T04:21:32.343Z,20.83
2018-09-29T04:24:02.603Z,15.20
2018-09-29T04:26:32.877Z,17.90
2018-09-29T04:29:03.261Z,13.27
2018-09-29T04:31:33.502Z,9.07
2018-09-29T04:34:03.759Z,8.23
2018-09-29T04:36:34.029Z,8.50
2018-09-29T04:39:05.501Z,8.23
2018-09-29T04:41:35.871Z,8.67
2018-09-29T04:44:06.370Z,7.27
2018-09-29T04:46:37.073Z,7.90
2018-09-29T04:49:07.571Z,10.17
2018-09-29T04:51:38.086Z,8.90
2018-09-29T04:54:08.471Z,10.77
2018-09-29T04:56:38.840Z,12.83
2018-09-29T04:59:09.169Z,11.93
2018-09-29T05:01:41.991Z,13.30
2018-09-29T05:04:12.381Z,19.13
2018-09-29T05:06:42.787Z,20.80
2018-09-29T05:09:13.085Z,32.20
2018-09-29T05:11:43.367Z,24.37
2018-09-29T05:14:13.632Z,58.13
2018-09-29T05:16:43.950Z,56.00
2018-09-29T05:19:14.232Z,22.57
2018-09-29T05:21:44.608Z,29.67
2018-09-29T05:24:14.894Z,15.70
2018-09-29T05:26:45.216Z,15.03
2018-09-29T05:29:15.473Z,19.80
2018-09-29T05:31:45.964Z,19.17
2018-09-29T05:34:16.279Z,47.23
2018-09-29T05:36:46.550Z,50.80
2018-09-29T05:39:17.332Z,153.68
2018-09-29T05:41:47.639Z,36.67
2018-09-29T05:44:18.267Z,24.43
2018-09-29T05:46:48.529Z,17.20
2018-09-29T05:49:18.822Z,16.33
2018-09-29T05:51:49.139Z,18.17
2018-09-29T05:54:19.521Z,31.00
2018-09-29T05:58:13.888Z,161.20
2018-09-29T06:00:44.178Z,42.27
2018-09-29T06:03:14.475Z,33.97
2018-09-29T06:05:44.856Z,29.00
2018-09-29T06:08:15.429Z,23.87
2018-09-29T06:10:45.696Z,23.80
2018-09-29T06:13:16.560Z,28.30
2018-09-29T06:15:47.040Z,30.97
2018-09-29T06:18:17.336Z,30.30
2018-09-29T06:20:47.663Z,23.47
2018-09-29T06:23:18.140Z,26.70
2018-09-29T06:25:48.414Z,83.63
2018-09-29T06:28:18.719Z,102.47
2018-09-29T06:30:49.225Z,67.63
2018-09-29T06:35:54.767Z,28.37
2018-09-29T06:38:25.046Z,27.23
2018-09-29T06:40:55.475Z,31.80
2018-09-29T06:43:25.921Z,14.43
2018-09-29T06:45:56.293Z,11.67
2018-09-29T06:48:26.553Z,14.27
2018-09-29T06:50:56.890Z,17.33
2018-09-29T06:53:27.305Z,19.73
2018-09-29T06:55:57.725Z,25.30
2018-09-29T06:58:27.990Z,27.73
2018-09-29T07:00:58.348Z,24.80
2018-09-29T07:03:28.613Z,31.37
2018-09-29T07:05:59.668Z,16.80
2018-09-29T07:08:29.943Z,10.37
2018-09-29T07:11:00.272Z,13.23
2018-09-29T07:13:30.585Z,15.93
2018-09-29T07:16:00.924Z,19.97
2018-09-29T07:18:31.822Z,24.23
2018-09-29T07:21:02.144Z,15.50
2018-09-29T07:23:32.495Z,17.10
2018-09-29T07:26:02.769Z,13.77
2018-09-29T07:28:33.120Z,18.40
2018-09-29T07:31:03.408Z,17.40
2018-09-29T07:33:33.706Z,15.77
2018-09-29T07:36:04.137Z,15.83
2018-09-29T07:38:34.474Z,14.60
2018-09-29T07:41:04.790Z,15.50
2018-09-29T07:43:35.159Z,15.80
2018-09-29T07:46:05.549Z,23.17
2018-09-29T07:48:36.811Z,35.10
2018-09-29T07:51:07.275Z,48.33
2018-09-29T07:53:37.991Z,35.43
2018-09-29T07:56:08.435Z,42.00
2018-09-29T07:58:38.911Z,45.43
2018-09-29T08:01:09.221Z,36.80
2018-09-29T08:03:39.557Z,23.17
2018-09-29T08:06:09.896Z,19.57
2018-09-29T08:08:40.196Z,14.97
2018-09-29T08:11:10.872Z,15.00
2018-09-29T08:13:41.265Z,17.17
2018-09-29T08:16:11.629Z,24.77
2018-09-29T08:18:41.963Z,29.77
2018-09-29T08:21:12.304Z,19.00
2018-09-29T08:23:42.624Z,14.53
2018-09-29T08:26:13.421Z,13.27
2018-09-29T08:28:43.692Z,10.63
2018-09-29T08:31:13.992Z,10.67
2018-09-29T08:33:44.306Z,9.70
2018-09-29T08:36:14.564Z,11.30
2018-09-29T08:38:44.873Z,12.60
2018-09-29T08:41:15.287Z,10.90
2018-09-29T08:43:45.573Z,9.77
2018-09-29T08:46:15.880Z,10.13
2018-09-29T08:48:46.214Z,9.40
2018-09-29T08:51:16.493Z,9.90
2018-09-29T08:53:46.835Z,9.03
2018-09-29T08:56:17.466Z,12.73
2018-09-29T08:58:47.760Z,16.47
2018-09-29T09:01:18.708Z,17.60
2018-09-29T09:03:49.967Z,10.93
2018-09-29T09:06:20.851Z,9.93
2018-09-29T09:08:51.721Z,7.83
2018-09-29T09:11:22.718Z,7.83
2018-09-29T09:13:53.544Z,9.60
2018-09-29T09:16:24.454Z,15.17
2018-09-29T09:18:55.309Z,5.90
2018-09-29T09:21:26.218Z,29.87
2018-09-29T09:23:57.163Z,106.13
2018-09-29T09:26:28.754Z,55.53
2018-09-29T09:28:59.848Z,10.93
2018-09-29T09:31:30.740Z,6.57
2018-09-29T09:34:01.604Z,5.43
2018-09-29T09:36:32.493Z,10.30
2018-09-29T09:39:04.672Z,10.30
2018-09-29T09:41:35.628Z,8.63
2018-09-29T09:44:06.766Z,10.77
2018-09-29T09:46:38.506Z,7.97
2018-09-29T09:49:09.333Z,11.50
2018-09-29T09:51:40.222Z,12.77
2018-09-29T09:54:11.074Z,30.80
2018-09-29T09:56:42.496Z,33.93
2018-09-29T09:59:13.774Z,29.40
2018-09-29T10:03:54.301Z,25.80
2018-09-29T10:06:25.241Z,18.87
2018-09-29T10:08:56.354Z,15.83
2018-09-29T10:11:27.249Z,14.73
2018-09-29T10:13:58.442Z,8.70
2018-09-29T10:16:29.297Z,5.93
2018-09-29T10:19:00.143Z,6.93
2018-09-29T10:21:30.976Z,8.90
2018-09-29T10:24:01.943Z,4.97
2018-09-29T10:26:32.769Z,4.60
2018-09-29T10:29:04.130Z,7.33
2018-09-29T10:31:34.963Z,9.70
2018-09-29T10:34:05.883Z,14.80
2018-09-29T10:36:36.703Z,26.53
2018-09-29T10:39:10.196Z,28.57
2018-09-29T10:41:41.607Z,16.80
2018-09-29T10:44:13.258Z,13.57
2018-09-29T10:46:44.313Z,15.60
2018-09-29T10:49:15.186Z,19.13
2018-09-29T10:51:46.508Z,16.10
2018-09-29T10:54:17.428Z,17.83
2018-09-29T10:56:48.416Z,19.33
2018-09-29T10:59:19.389Z,21.53
2018-09-29T11:01:50.264Z,26.83
2018-09-29T11:04:21.136Z,32.67
2018-09-29T11:06:53.593Z,32.47
2018-09-29T11:09:24.498Z,34.47
2018-09-29T11:11:55.334Z,23.67
2018-09-29T11:14:26.360Z,23.97
2018-09-29T11:16:57.415Z,21.13
2018-09-29T11:19:28.287Z,20.47
2018-09-29T11:21:59.124Z,18.60
2018-09-29T11:24:29.997Z,21.70
2018-09-29T11:27:00.902Z,18.97
2018-09-29T11:29:31.824Z,18.53
2018-09-29T11:32:02.692Z,13.93
2018-09-29T11:34:33.577Z,13.20
2018-09-29T11:37:04.433Z,14.20
2018-09-29T11:39:35.377Z,17.90
2018-09-29T11:42:06.222Z,14.87
2018-09-29T11:44:37.145Z,14.30
2018-09-29T11:47:08.016Z,19.70
2018-09-29T11:49:38.894Z,17.53
2018-09-29T11:52:09.737Z,15.37
2018-09-29T11:54:40.596Z,8.83
2018-09-29T11:57:11.528Z,8.03
2018-09-29T11:59:42.444Z,8.43
2018-09-29T12:02:13.465Z,10.93
2018-09-29T12:04:44.656Z,9.60
2018-09-29T12:07:15.596Z,9.07
2018-09-29T12:09:46.591Z,9.57
2018-09-29T12:12:17.441Z,9.13
2018-09-29T12:14:48.405Z,9.90
2018-09-29T12:17:19.267Z,10.07
2018-09-29T12:19:50.123Z,9.73
2018-09-29T12:22:21.026Z,9.20
2018-09-29T12:24:52.049Z,10.53
2018-09-29T12:27:24.920Z,13.80
2018-09-29T12:29:54.518Z,12.70
2018-09-29T12:32:25.566Z,13.57
2018-09-29T12:34:56.473Z,15.20
2018-09-29T12:37:27.402Z,12.63
2018-09-29T12:39:58.436Z,9.10
2018-09-29T12:42:29.279Z,13.97
2018-09-29T12:45:00.254Z,14.73
2018-09-29T12:47:31.332Z,9.40
2018-09-29T12:50:02.207Z,8.67
2018-09-29T12:52:33.038Z,11.37
2018-09-29T12:55:03.943Z,16.27
2018-09-29T12:57:34.875Z,12.27
2018-09-29T13:00:06.366Z,12.57
2018-09-29T13:02:37.216Z,10.27
2018-09-29T13:05:08.245Z,11.73
2018-09-29T13:07:39.305Z,9.80
2018-09-29T13:10:10.213Z,11.57
2018-09-29T13:12:41.147Z,11.20
2018-09-29T13:15:12.080Z,12.57
2018-09-29T13:17:43.148Z,12.63
2018-09-29T13:20:14.061Z,12.27
2018-09-29T13:22:44.939Z,11.93
2018-09-29T13:25:16.034Z,15.30
2018-09-29T13:27:49.104Z,12.40
2018-09-29T13:30:20.067Z,13.53
2018-09-29T13:32:50.893Z,13.90
2018-09-29T13:35:21.767Z,12.67
2018-09-29T13:37:52.608Z,12.10
2018-09-29T13:40:23.467Z,12.40
2018-09-29T13:42:54.318Z,10.43
2018-09-29T13:45:25.245Z,12.83
2018-09-29T13:47:56.087Z,9.67
2018-09-29T13:50:26.949Z,11.83
2018-09-29T13:52:57.805Z,10.23
2018-09-29T13:55:28.667Z,10.53
2018-09-29T13:57:59.624Z,11.53
2018-09-29T14:00:30.569Z,12.93
2018-09-29T14:03:01.435Z,15.63
2018-09-29T14:05:32.300Z,15.80
2018-09-29T14:08:03.114Z,16.27
2018-09-29T14:10:33.969Z,11.70
2018-09-29T14:13:05.451Z,9.70
2018-09-29T14:15:36.659Z,9.73
2018-09-29T14:18:07.516Z,8.77
2018-09-29T14:20:38.377Z,11.90
2018-09-29T14:23:09.221Z,12.97
2018-09-29T14:25:40.213Z,8.80
2018-09-29T14:28:11.049Z,9.13
2018-09-29T14:30:46.185Z,15.50
2018-09-29T14:33:18.942Z,16.27
2018-09-29T14:35:49.821Z,21.63
2018-09-29T14:38:20.667Z,20.93
2018-09-29T14:40:51.643Z,24.27
2018-09-29T14:43:22.488Z,19.77
2018-09-29T14:45:53.410Z,14.80
2018-09-29T14:48:24.301Z,24.13
2018-09-29T14:50:55.265Z,68.10
2018-09-29T14:53:26.128Z,423.53
2018-09-29T14:55:57.057Z,275.23
2018-09-29T14:58:28.099Z,97.60
2018-09-29T15:00:59.163Z,17.33
2018-09-29T15:03:30.037Z,24.23
2018-09-29T15:06:01.011Z,12.53
2018-09-29T15:08:32.072Z,11.87
2018-09-29T15:11:02.947Z,12.87
2018-09-29T15:13:33.773Z,11.33
2018-09-29T15:16:05.113Z,13.57
2018-09-29T15:18:35.945Z,13.03
2018-09-29T15:21:07.025Z,13.40
2018-09-29T15:23:37.885Z,16.93
2018-09-29T15:26:08.902Z,20.23
2018-09-29T15:28:39.876Z,24.93
2018-09-29T15:31:10.894Z,24.83
2018-09-29T15:33:41.738Z,18.33
2018-09-29T15:36:12.640Z,17.27
2018-09-29T15:38:43.472Z,15.87
2018-09-29T15:41:14.355Z,18.00
2018-09-29T15:43:47.710Z,17.77
2018-09-29T15:46:18.728Z,31.97
2018-09-29T15:48:49.615Z,26.47
2018-09-29T15:51:20.676Z,42.83
2018-09-29T15:53:51.588Z,37.43
2018-09-29T15:56:22.459Z,34.17
2018-09-29T15:58:53.389Z,45.27
2018-09-29T16:01:24.336Z,56.83
2018-09-29T16:03:55.187Z,55.83
2018-09-29T16:06:26.073Z,38.20
2018-09-29T16:08:57.057Z,35.83
2018-09-29T16:11:28.129Z,39.67
2018-09-29T16:13:58.976Z,36.67
2018-09-29T16:16:29.898Z,53.73
2018-09-29T16:19:00.761Z,46.47
2018-09-29T16:21:31.689Z,39.40
2018-09-29T16:24:02.701Z,37.57
2018-09-29T16:26:33.580Z,34.57
2018-09-29T16:29:04.438Z,44.20
2018-09-29T16:31:35.377Z,36.00
2018-09-29T16:34:06.225Z,53.73
2018-09-29T16:36:37.531Z,128.77
2018-09-29T16:39:11.832Z,71.63
2018-09-29T16:41:43.119Z,109.60
2018-09-29T16:44:13.976Z,99.13
2018-09-29T16:46:44.922Z,86.90
2018-09-29T16:49:15.780Z,82.93
2018-09-29T16:51:46.686Z,85.03
2018-09-29T16:54:17.570Z,123.07
2018-09-29T16:56:48.944Z,83.37
2018-09-29T16:59:19.904Z,114.63
2018-09-29T17:01:50.864Z,87.07
2018-09-29T17:04:21.742Z,103.47
2018-09-29T17:06:52.864Z,115.50
2018-09-29T17:09:23.760Z,123.37
2018-09-29T17:11:54.653Z,99.57
2018-09-29T17:14:25.504Z,122.17
2018-09-29T17:16:56.452Z,116.27
2018-09-29T17:19:27.958Z,106.30
2018-09-29T17:21:59.067Z,97.70
2018-09-29T17:24:30.164Z,103.30
2018-09-29T17:27:01.073Z,87.17
2018-09-29T17:29:31.938Z,69.80
2018-09-29T17:32:03.200Z,80.80
2018-09-29T17:34:34.095Z,85.17
2018-09-29T17:37:05.217Z,83.10
2018-09-29T17:39:36.105Z,81.07
2018-09-29T17:42:07.048Z,89.93
2018-09-29T17:44:37.935Z,94.57
2018-09-29T17:47:08.899Z,99.40
2018-09-29T17:49:39.767Z,163.60
2018-09-29T17:52:10.700Z,114.20
2018-09-29T17:54:41.575Z,82.23
2018-09-29T17:57:12.772Z,63.13
2018-09-29T17:59:51.944Z,53.10
2018-09-29T18:02:22.863Z,53.50
2018-09-29T18:04:53.731Z,46.73
2018-09-29T18:07:24.861Z,58.50
2018-09-29T18:09:56.067Z,73.53
2018-09-29T18:12:27.081Z,66.43
2018-09-29T18:14:57.990Z,84.33
2018-09-29T18:17:28.929Z,91.97
2018-09-29T18:19:59.888Z,49.93
2018-09-29T18:22:30.885Z,39.67
2018-09-29T18:25:01.844Z,61.17
2018-09-29T18:27:37.831Z,67.73
2018-09-29T18:30:09.213Z,46.30
2018-09-29T18:32:40.093Z,40.37
2018-09-29T18:35:10.979Z,46.50
2018-09-29T18:37:41.875Z,52.60
2018-09-29T18:40:12.805Z,49.77
2018-09-29T18:42:44.103Z,52.90
2018-09-29T18:45:15.060Z,122.90
2018-09-29T18:47:46.382Z,51.50
2018-09-29T18:50:17.631Z,52.23
2018-09-29T18:52:48.898Z,49.97
2018-09-29T18:55:20.216Z,55.60
2018-09-29T18:57:51.316Z,68.33
2018-09-29T19:00:22.315Z,67.50
2018-09-29T19:02:53.245Z,71.73
2018-09-29T19:05:24.122Z,73.17
2018-09-29T19:07:55.118Z,63.20
2018-09-29T19:10:26.073Z,59.60
2018-09-29T19:12:57.083Z,81.33
2018-09-29T19:15:28.178Z,48.70
2018-09-29T19:17:59.096Z,40.97
2018-09-29T19:20:29.986Z,50.53
2018-09-29T19:23:01.029Z,21.77
2018-09-29T19:25:31.917Z,21.17
2018-09-29T19:28:02.944Z,26.23
2018-09-29T19:30:33.869Z,42.73
2018-09-29T19:33:04.794Z,26.23
2018-09-29T19:35:35.786Z,31.50
2018-09-29T19:38:06.738Z,34.07
2018-09-29T19:40:37.818Z,33.13
2018-09-29T19:43:08.774Z,31.60
2018-09-29T19:45:39.729Z,35.93
2018-09-29T19:48:10.795Z,41.90
2018-09-29T19:50:41.712Z,29.73
2018-09-29T19:53:12.655Z,43.40
2018-09-29T19:55:43.541Z,36.70
2018-09-29T19:58:14.507Z,36.77
2018-09-29T20:00:50.498Z,28.30
2018-09-29T20:03:26.328Z,20.43
2018-09-29T20:06:02.245Z,21.83
2018-09-29T20:08:38.141Z,23.20
2018-09-29T20:11:14.354Z,25.90
2018-09-29T20:13:50.093Z,24.47
2018-09-29T20:16:26.032Z,23.90
2018-09-29T20:19:02.079Z,24.00
2018-09-29T20:21:38.089Z,23.20
2018-09-29T20:24:14.204Z,18.17
2018-09-29T20:26:50.095Z,19.47
2018-09-29T20:29:25.939Z,19.13
2018-09-29T20:33:26.144Z,20.87
2018-09-29T20:36:02.198Z,25.20
2018-09-29T20:38:37.864Z,22.77
2018-09-29T20:41:13.730Z,27.67
2018-09-29T20:43:49.559Z,25.73
2018-09-29T20:46:25.525Z,22.23
2018-09-29T20:49:01.362Z,20.83
2018-09-29T20:51:37.494Z,20.30
2018-09-29T20:54:13.435Z,21.10
2018-09-29T20:56:50.385Z,19.90
2018-09-29T20:59:26.163Z,19.33
2018-09-29T21:02:02.168Z,21.93
2018-09-29T21:04:38.016Z,21.53
2018-09-29T21:07:13.896Z,22.50
2018-09-29T21:09:49.721Z,22.57
2018-09-29T21:12:25.601Z,20.83
2018-09-29T21:15:01.424Z,30.63
2018-09-29T21:17:37.339Z,37.83
2018-09-29T21:20:13.225Z,39.87
2018-09-29T21:22:49.096Z,35.87
2018-09-29T21:25:25.162Z,35.07
2018-09-29T21:28:01.173Z,35.97
2018-09-29T21:30:37.044Z,35.10
2018-09-29T21:33:13.368Z,28.07
2018-09-29T21:35:49.236Z,26.20
2018-09-29T21:38:25.143Z,21.03
2018-09-29T21:41:01.008Z,23.07
2018-09-29T21:43:37.008Z,23.50
2018-09-29T21:46:12.824Z,25.97
2018-09-29T21:48:49.032Z,28.83
2018-09-29T21:51:24.912Z,34.73
2018-09-29T21:54:01.083Z,24.70
2018-09-29T21:56:37.530Z,53.33
2018-09-29T21:59:13.559Z,54.10
2018-09-29T22:01:49.413Z,35.90
2018-09-29T22:04:25.520Z,26.93
2018-09-29T22:08:25.502Z,16.53
2018-09-29T22:11:01.407Z,12.90
2018-09-29T22:13:37.200Z,11.50
2018-09-29T22:16:13.057Z,10.73
2018-09-29T22:18:49.141Z,10.63
2018-09-29T22:21:29.299Z,11.60
2018-09-29T22:24:05.248Z,8.93
2018-09-29T22:26:44.005Z,7.40
2018-09-29T22:29:19.811Z,7.27
2018-09-29T22:31:55.739Z,12.13
2018-09-29T22:34:31.856Z,13.10
2018-09-29T22:37:08.037Z,12.90
2018-09-29T22:39:43.800Z,12.50
2018-09-29T22:42:19.652Z,13.73
2018-09-29T22:44:57.176Z,14.57
2018-09-29T22:47:33.179Z,14.17
2018-09-29T22:50:09.017Z,16.30
2018-09-29T22:52:44.931Z,17.30
2018-09-29T22:55:20.752Z,18.77
2018-09-29T22:57:56.643Z,18.77
2018-09-29T23:00:33.334Z,18.23
2018-09-29T23:03:09.274Z,17.17
2018-09-29T23:05:45.301Z,18.53
2018-09-29T23:08:21.985Z,20.87
2018-09-29T23:10:57.902Z,19.37
2018-09-29T23:13:33.743Z,19.27
2018-09-29T23:16:10.091Z,21.70
2018-09-29T23:18:45.968Z,19.97
2018-09-29T23:21:21.845Z,20.27
2018-09-29T23:23:57.767Z,18.00
2018-09-29T23:26:33.854Z,16.13
2018-09-29T23:29:09.970Z,16.03
2018-09-29T23:31:45.787Z,13.80
2018-09-29T23:34:21.657Z,14.53
2018-09-29T23:36:57.492Z,15.43
2018-09-29T23:39:33.370Z,14.53
2018-09-29T23:42:09.185Z,16.97
2018-09-29T23:44:45.036Z,16.33
2018-09-29T23:47:20.939Z,15.63
2018-09-29T23:49:56.887Z,15.43
2018-09-29T23:52:32.711Z,14.00
2018-09-29T23:55:08.527Z,13.67
2018-09-29T23:57:44.365Z,15.40
